sensor_id;sensor_type;location;lat;lon;timestamp;P1;durP1;ratioP1;P2;durP2;ratioP2
57824;SDS011;43912;44.188;21.094;2023-02-15T00:01:34;39.15;;;27.70;;
57824;SDS011;43912;44.188;21.094;2023-02-15T00:04:01;37.80;;;27.90;;
57824;SDS011;43912;44.188;21.094;2023-02-15T00:06:27;37.28;;;26.67;;
57824;SDS011;43912;44.188;21.094;2023-02-15T00:08:53;39.85;;;28.20;;
57824;SDS011;43912;44.188;21.094;2023-02-15T00:11:20;35.53;;;26.73;;
57824;SDS011;43912;44.188;21.094;2023-02-15T00:14:25;34.72;;;26.08;;
57824;SDS011;43912;44.188;21.094;2023-02-15T00:16:51;36.55;;;25.63;;
57824;SDS011;43912;44.188;21.094;2023-02-15T00:19:18;35.95;;;26.48;;
57824;SDS011;43912;44.188;21.094;2023-02-15T00:21:45;35.92;;;26.15;;
57824;SDS011;43912;44.188;21.094;2023-02-15T00:24:12;35.35;;;25.73;;
57824;SDS011;43912;44.188;21.094;2023-02-15T00:26:39;40.22;;;27.13;;
57824;SDS011;43912;44.188;21.094;2023-02-15T00:29:05;36.88;;;26.15;;
57824;SDS011;43912;44.188;21.094;2023-02-15T00:31:32;34.42;;;24.92;;
57824;SDS011;43912;44.188;21.094;2023-02-15T00:34:03;35.80;;;25.73;;
57824;SDS011;43912;44.188;21.094;2023-02-15T00:36:29;34.40;;;24.70;;
57824;SDS011;43912;44.188;21.094;2023-02-15T00:38:55;35.13;;;24.63;;
57824;SDS011;43912;44.188;21.094;2023-02-15T00:41:21;35.40;;;24.75;;
57824;SDS011;43912;44.188;21.094;2023-02-15T00:43:47;36.30;;;25.48;;
57824;SDS011;43912;44.188;21.094;2023-02-15T00:46:13;32.17;;;23.13;;
57824;SDS011;43912;44.188;21.094;2023-02-15T00:48:39;35.15;;;26.00;;
57824;SDS011;43912;44.188;21.094;2023-02-15T00:51:05;33.60;;;25.60;;
57824;SDS011;43912;44.188;21.094;2023-02-15T00:53:31;88.55;;;56.75;;
57824;SDS011;43912;44.188;21.094;2023-02-15T00:55:57;33.65;;;24.85;;
57824;SDS011;43912;44.188;21.094;2023-02-15T00:58:24;34.90;;;26.33;;
57824;SDS011;43912;44.188;21.094;2023-02-15T01:00:50;33.38;;;25.17;;
57824;SDS011;43912;44.188;21.094;2023-02-15T01:03:17;33.63;;;25.17;;
57824;SDS011;43912;44.188;21.094;2023-02-15T01:05:44;35.88;;;26.10;;
57824;SDS011;43912;44.188;21.094;2023-02-15T01:08:10;36.45;;;27.55;;
57824;SDS011;43912;44.188;21.094;2023-02-15T01:10:36;33.35;;;24.60;;
57824;SDS011;43912;44.188;21.094;2023-02-15T01:13:02;35.47;;;25.40;;
57824;SDS011;43912;44.188;21.094;2023-02-15T01:15:28;33.97;;;26.92;;
57824;SDS011;43912;44.188;21.094;2023-02-15T01:17:55;34.58;;;23.95;;
57824;SDS011;43912;44.188;21.094;2023-02-15T01:20:22;33.58;;;24.58;;
57824;SDS011;43912;44.188;21.094;2023-02-15T01:22:48;34.08;;;24.33;;
57824;SDS011;43912;44.188;21.094;2023-02-15T01:25:18;33.88;;;25.63;;
57824;SDS011;43912;44.188;21.094;2023-02-15T01:27:44;30.77;;;23.88;;
57824;SDS011;43912;44.188;21.094;2023-02-15T01:30:11;35.42;;;24.38;;
57824;SDS011;43912;44.188;21.094;2023-02-15T01:32:37;37.63;;;25.38;;
57824;SDS011;43912;44.188;21.094;2023-02-15T01:35:03;32.53;;;23.63;;
57824;SDS011;43912;44.188;21.094;2023-02-15T01:37:30;36.83;;;24.48;;
57824;SDS011;43912;44.188;21.094;2023-02-15T01:39:56;34.20;;;25.00;;
57824;SDS011;43912;44.188;21.094;2023-02-15T01:42:23;33.00;;;25.45;;
57824;SDS011;43912;44.188;21.094;2023-02-15T01:44:56;31.80;;;24.05;;
57824;SDS011;43912;44.188;21.094;2023-02-15T01:50:00;33.72;;;24.15;;
57824;SDS011;43912;44.188;21.094;2023-02-15T01:52:27;32.15;;;23.92;;
57824;SDS011;43912;44.188;21.094;2023-02-15T01:54:54;33.15;;;24.55;;
57824;SDS011;43912;44.188;21.094;2023-02-15T01:57:21;35.67;;;26.10;;
57824;SDS011;43912;44.188;21.094;2023-02-15T01:59:49;31.52;;;24.75;;
57824;SDS011;43912;44.188;21.094;2023-02-15T02:02:17;37.88;;;25.05;;
57824;SDS011;43912;44.188;21.094;2023-02-15T02:04:50;35.28;;;25.35;;
57824;SDS011;43912;44.188;21.094;2023-02-15T02:07:17;33.28;;;24.88;;
57824;SDS011;43912;44.188;21.094;2023-02-15T02:09:44;33.13;;;24.92;;
57824;SDS011;43912;44.188;21.094;2023-02-15T02:12:10;34.55;;;25.30;;
57824;SDS011;43912;44.188;21.094;2023-02-15T02:14:36;33.50;;;24.67;;
57824;SDS011;43912;44.188;21.094;2023-02-15T02:17:27;32.90;;;24.52;;
57824;SDS011;43912;44.188;21.094;2023-02-15T02:27:49;33.10;;;24.92;;
57824;SDS011;43912;44.188;21.094;2023-02-15T02:33:20;33.30;;;24.67;;
57824;SDS011;43912;44.188;21.094;2023-02-15T02:43:20;32.30;;;23.55;;
57824;SDS011;43912;44.188;21.094;2023-02-15T02:46:05;35.15;;;23.98;;
57824;SDS011;43912;44.188;21.094;2023-02-15T02:48:33;34.33;;;24.73;;
57824;SDS011;43912;44.188;21.094;2023-02-15T02:50:59;35.67;;;25.45;;
57824;SDS011;43912;44.188;21.094;2023-02-15T02:53:25;35.10;;;24.48;;
57824;SDS011;43912;44.188;21.094;2023-02-15T02:58:26;32.33;;;23.95;;
57824;SDS011;43912;44.188;21.094;2023-02-15T03:01:02;35.28;;;24.38;;
57824;SDS011;43912;44.188;21.094;2023-02-15T03:03:50;34.35;;;24.05;;
57824;SDS011;43912;44.188;21.094;2023-02-15T03:06:22;34.42;;;24.58;;
57824;SDS011;43912;44.188;21.094;2023-02-15T03:08:54;31.92;;;22.73;;
57824;SDS011;43912;44.188;21.094;2023-02-15T03:11:23;32.80;;;23.40;;
57824;SDS011;43912;44.188;21.094;2023-02-15T03:13:49;33.60;;;23.60;;
57824;SDS011;43912;44.188;21.094;2023-02-15T03:16:16;32.85;;;23.83;;
57824;SDS011;43912;44.188;21.094;2023-02-15T03:19:03;28.90;;;22.98;;
57824;SDS011;43912;44.188;21.094;2023-02-15T03:21:39;33.13;;;23.95;;
57824;SDS011;43912;44.188;21.094;2023-02-15T03:24:08;31.73;;;23.13;;
57824;SDS011;43912;44.188;21.094;2023-02-15T03:26:36;31.05;;;22.85;;
57824;SDS011;43912;44.188;21.094;2023-02-15T03:29:03;32.42;;;22.63;;
57824;SDS011;43912;44.188;21.094;2023-02-15T03:31:31;33.28;;;23.05;;
57824;SDS011;43912;44.188;21.094;2023-02-15T03:33:59;32.72;;;23.65;;
57824;SDS011;43912;44.188;21.094;2023-02-15T03:36:41;32.78;;;22.77;;
57824;SDS011;43912;44.188;21.094;2023-02-15T03:41:45;35.25;;;26.27;;
57824;SDS011;43912;44.188;21.094;2023-02-15T03:44:14;33.63;;;22.98;;
57824;SDS011;43912;44.188;21.094;2023-02-15T03:49:13;29.70;;;23.27;;
57824;SDS011;43912;44.188;21.094;2023-02-15T03:51:42;34.13;;;23.02;;
57824;SDS011;43912;44.188;21.094;2023-02-15T03:54:14;32.75;;;23.92;;
57824;SDS011;43912;44.188;21.094;2023-02-15T03:57:05;31.33;;;22.35;;
57824;SDS011;43912;44.188;21.094;2023-02-15T03:59:51;31.13;;;23.00;;
57824;SDS011;43912;44.188;21.094;2023-02-15T04:05:11;29.70;;;22.25;;
57824;SDS011;43912;44.188;21.094;2023-02-15T04:07:37;33.63;;;23.70;;
57824;SDS011;43912;44.188;21.094;2023-02-15T04:10:03;31.55;;;23.92;;
57824;SDS011;43912;44.188;21.094;2023-02-15T04:12:47;31.63;;;23.15;;
57824;SDS011;43912;44.188;21.094;2023-02-15T04:15:13;29.55;;;21.90;;
57824;SDS011;43912;44.188;21.094;2023-02-15T04:17:58;34.80;;;23.73;;
57824;SDS011;43912;44.188;21.094;2023-02-15T04:20:24;32.15;;;23.75;;
57824;SDS011;43912;44.188;21.094;2023-02-15T04:23:09;30.67;;;21.95;;
57824;SDS011;43912;44.188;21.094;2023-02-15T04:25:53;32.95;;;22.95;;
57824;SDS011;43912;44.188;21.094;2023-02-15T04:28:19;31.65;;;23.38;;
57824;SDS011;43912;44.188;21.094;2023-02-15T04:30:46;33.17;;;23.83;;
57824;SDS011;43912;44.188;21.094;2023-02-15T04:33:12;33.65;;;24.08;;
57824;SDS011;43912;44.188;21.094;2023-02-15T04:35:38;32.33;;;24.65;;
57824;SDS011;43912;44.188;21.094;2023-02-15T04:38:04;42.40;;;29.52;;
57824;SDS011;43912;44.188;21.094;2023-02-15T04:40:30;36.13;;;26.80;;
57824;SDS011;43912;44.188;21.094;2023-02-15T04:42:56;40.80;;;30.20;;
57824;SDS011;43912;44.188;21.094;2023-02-15T04:45:22;45.70;;;32.78;;
57824;SDS011;43912;44.188;21.094;2023-02-15T04:47:48;44.38;;;32.13;;
57824;SDS011;43912;44.188;21.094;2023-02-15T04:50:15;48.65;;;31.20;;
57824;SDS011;43912;44.188;21.094;2023-02-15T04:52:41;41.20;;;29.13;;
57824;SDS011;43912;44.188;21.094;2023-02-15T04:55:07;41.17;;;29.02;;
57824;SDS011;43912;44.188;21.094;2023-02-15T04:57:33;38.97;;;28.05;;
57824;SDS011;43912;44.188;21.094;2023-02-15T04:59:59;36.17;;;26.63;;
57824;SDS011;43912;44.188;21.094;2023-02-15T05:02:25;36.53;;;27.00;;
57824;SDS011;43912;44.188;21.094;2023-02-15T05:04:51;36.45;;;27.73;;
57824;SDS011;43912;44.188;21.094;2023-02-15T05:07:17;39.67;;;27.60;;
57824;SDS011;43912;44.188;21.094;2023-02-15T05:09:45;32.83;;;26.27;;
57824;SDS011;43912;44.188;21.094;2023-02-15T05:12:11;37.35;;;27.77;;
57824;SDS011;43912;44.188;21.094;2023-02-15T05:14:37;35.17;;;26.40;;
57824;SDS011;43912;44.188;21.094;2023-02-15T05:17:03;35.75;;;27.00;;
57824;SDS011;43912;44.188;21.094;2023-02-15T05:19:30;34.42;;;25.10;;
57824;SDS011;43912;44.188;21.094;2023-02-15T05:21:56;38.15;;;26.27;;
57824;SDS011;43912;44.188;21.094;2023-02-15T05:24:22;40.47;;;27.83;;
57824;SDS011;43912;44.188;21.094;2023-02-15T05:27:08;37.92;;;28.00;;
57824;SDS011;43912;44.188;21.094;2023-02-15T05:29:54;38.33;;;28.15;;
57824;SDS011;43912;44.188;21.094;2023-02-15T05:32:20;37.70;;;27.38;;
57824;SDS011;43912;44.188;21.094;2023-02-15T05:34:46;56.25;;;36.22;;
57824;SDS011;43912;44.188;21.094;2023-02-15T05:37:12;50.08;;;35.50;;
57824;SDS011;43912;44.188;21.094;2023-02-15T05:39:38;43.10;;;31.02;;
57824;SDS011;43912;44.188;21.094;2023-02-15T05:42:04;42.72;;;30.63;;
57824;SDS011;43912;44.188;21.094;2023-02-15T05:44:31;42.25;;;31.52;;
57824;SDS011;43912;44.188;21.094;2023-02-15T05:46:57;57.10;;;36.30;;
57824;SDS011;43912;44.188;21.094;2023-02-15T05:49:23;44.95;;;31.00;;
57824;SDS011;43912;44.188;21.094;2023-02-15T05:51:49;39.83;;;28.48;;
57824;SDS011;43912;44.188;21.094;2023-02-15T05:54:15;41.25;;;29.02;;
57824;SDS011;43912;44.188;21.094;2023-02-15T05:56:41;41.40;;;29.48;;
57824;SDS011;43912;44.188;21.094;2023-02-15T05:59:07;51.47;;;35.85;;
57824;SDS011;43912;44.188;21.094;2023-02-15T06:01:33;51.30;;;38.03;;
57824;SDS011;43912;44.188;21.094;2023-02-15T06:03:59;63.13;;;46.75;;
57824;SDS011;43912;44.188;21.094;2023-02-15T06:06:25;64.70;;;48.20;;
57824;SDS011;43912;44.188;21.094;2023-02-15T06:08:51;75.25;;;51.28;;
57824;SDS011;43912;44.188;21.094;2023-02-15T06:11:18;79.00;;;55.25;;
57824;SDS011;43912;44.188;21.094;2023-02-15T06:13:44;90.15;;;62.83;;
57824;SDS011;43912;44.188;21.094;2023-02-15T06:16:10;80.85;;;61.67;;
57824;SDS011;43912;44.188;21.094;2023-02-15T06:18:36;103.55;;;69.70;;
57824;SDS011;43912;44.188;21.094;2023-02-15T06:21:02;60.65;;;45.35;;
57824;SDS011;43912;44.188;21.094;2023-02-15T06:23:28;56.40;;;42.28;;
57824;SDS011;43912;44.188;21.094;2023-02-15T06:25:54;50.38;;;38.17;;
57824;SDS011;43912;44.188;21.094;2023-02-15T06:28:20;55.63;;;41.95;;
57824;SDS011;43912;44.188;21.094;2023-02-15T06:30:46;61.45;;;47.22;;
57824;SDS011;43912;44.188;21.094;2023-02-15T06:33:12;84.88;;;60.55;;
57824;SDS011;43912;44.188;21.094;2023-02-15T06:35:38;81.38;;;59.28;;
57824;SDS011;43912;44.188;21.094;2023-02-15T06:38:04;79.53;;;60.75;;
57824;SDS011;43912;44.188;21.094;2023-02-15T06:40:30;86.82;;;62.88;;
57824;SDS011;43912;44.188;21.094;2023-02-15T06:42:56;79.47;;;58.70;;
57824;SDS011;43912;44.188;21.094;2023-02-15T06:45:22;61.65;;;46.85;;
57824;SDS011;43912;44.188;21.094;2023-02-15T06:47:48;49.85;;;37.60;;
57824;SDS011;43912;44.188;21.094;2023-02-15T06:50:14;51.58;;;40.97;;
57824;SDS011;43912;44.188;21.094;2023-02-15T06:52:40;60.17;;;43.53;;
57824;SDS011;43912;44.188;21.094;2023-02-15T06:55:06;58.08;;;46.25;;
57824;SDS011;43912;44.188;21.094;2023-02-15T06:57:32;57.67;;;44.17;;
57824;SDS011;43912;44.188;21.094;2023-02-15T06:59:59;59.45;;;46.28;;
57824;SDS011;43912;44.188;21.094;2023-02-15T07:02:25;69.25;;;52.45;;
57824;SDS011;43912;44.188;21.094;2023-02-15T07:04:51;64.13;;;52.53;;
57824;SDS011;43912;44.188;21.094;2023-02-15T07:07:17;62.67;;;51.60;;
57824;SDS011;43912;44.188;21.094;2023-02-15T07:09:43;62.58;;;50.20;;
57824;SDS011;43912;44.188;21.094;2023-02-15T07:12:09;66.75;;;52.50;;
57824;SDS011;43912;44.188;21.094;2023-02-15T07:14:54;66.85;;;49.85;;
57824;SDS011;43912;44.188;21.094;2023-02-15T07:17:20;58.88;;;44.22;;
57824;SDS011;43912;44.188;21.094;2023-02-15T07:19:46;59.45;;;45.47;;
57824;SDS011;43912;44.188;21.094;2023-02-15T07:22:12;73.25;;;56.67;;
57824;SDS011;43912;44.188;21.094;2023-02-15T07:24:38;70.30;;;52.50;;
57824;SDS011;43912;44.188;21.094;2023-02-15T07:27:06;62.22;;;48.78;;
57824;SDS011;43912;44.188;21.094;2023-02-15T07:29:32;68.25;;;49.15;;
57824;SDS011;43912;44.188;21.094;2023-02-15T07:31:58;51.13;;;37.33;;
57824;SDS011;43912;44.188;21.094;2023-02-15T07:34:24;54.50;;;41.22;;
57824;SDS011;43912;44.188;21.094;2023-02-15T07:36:50;50.45;;;39.72;;
57824;SDS011;43912;44.188;21.094;2023-02-15T07:39:16;60.90;;;41.28;;
57824;SDS011;43912;44.188;21.094;2023-02-15T07:41:42;57.55;;;42.80;;
57824;SDS011;43912;44.188;21.094;2023-02-15T07:44:12;59.63;;;46.05;;
57824;SDS011;43912;44.188;21.094;2023-02-15T07:46:39;46.50;;;35.92;;
57824;SDS011;43912;44.188;21.094;2023-02-15T07:49:05;35.80;;;29.80;;
57824;SDS011;43912;44.188;21.094;2023-02-15T07:51:31;38.53;;;29.42;;
57824;SDS011;43912;44.188;21.094;2023-02-15T07:53:57;28.33;;;21.73;;
57824;SDS011;43912;44.188;21.094;2023-02-15T07:56:23;32.25;;;23.67;;
57824;SDS011;43912;44.188;21.094;2023-02-15T07:58:49;31.33;;;24.70;;
57824;SDS011;43912;44.188;21.094;2023-02-15T08:01:15;31.63;;;24.83;;
57824;SDS011;43912;44.188;21.094;2023-02-15T08:03:41;26.67;;;20.60;;
57824;SDS011;43912;44.188;21.094;2023-02-15T08:06:07;28.30;;;20.90;;
57824;SDS011;43912;44.188;21.094;2023-02-15T08:08:34;28.48;;;21.60;;
57824;SDS011;43912;44.188;21.094;2023-02-15T08:11:06;26.30;;;19.08;;
57824;SDS011;43912;44.188;21.094;2023-02-15T08:13:58;26.30;;;20.55;;
57824;SDS011;43912;44.188;21.094;2023-02-15T08:18:51;28.45;;;20.70;;
57824;SDS011;43912;44.188;21.094;2023-02-15T08:21:17;28.25;;;22.05;;
57824;SDS011;43912;44.188;21.094;2023-02-15T08:23:43;31.38;;;23.67;;
57824;SDS011;43912;44.188;21.094;2023-02-15T08:26:10;33.10;;;25.10;;
57824;SDS011;43912;44.188;21.094;2023-02-15T08:28:36;30.73;;;23.45;;
57824;SDS011;43912;44.188;21.094;2023-02-15T08:31:09;35.22;;;24.88;;
57824;SDS011;43912;44.188;21.094;2023-02-15T08:33:36;31.80;;;24.13;;
57824;SDS011;43912;44.188;21.094;2023-02-15T08:36:03;30.83;;;22.98;;
57824;SDS011;43912;44.188;21.094;2023-02-15T08:38:29;32.13;;;22.33;;
57824;SDS011;43912;44.188;21.094;2023-02-15T08:40:55;29.65;;;22.08;;
57824;SDS011;43912;44.188;21.094;2023-02-15T08:43:21;28.30;;;20.75;;
57824;SDS011;43912;44.188;21.094;2023-02-15T08:45:47;27.73;;;21.45;;
57824;SDS011;43912;44.188;21.094;2023-02-15T08:48:13;34.25;;;25.92;;
57824;SDS011;43912;44.188;21.094;2023-02-15T08:50:39;35.45;;;26.20;;
57824;SDS011;43912;44.188;21.094;2023-02-15T08:53:05;39.70;;;25.45;;
57824;SDS011;43912;44.188;21.094;2023-02-15T08:55:31;29.85;;;23.27;;
57824;SDS011;43912;44.188;21.094;2023-02-15T08:57:58;29.50;;;22.92;;
57824;SDS011;43912;44.188;21.094;2023-02-15T09:00:24;30.88;;;23.75;;
57824;SDS011;43912;44.188;21.094;2023-02-15T09:02:50;32.30;;;24.33;;
57824;SDS011;43912;44.188;21.094;2023-02-15T09:05:17;31.02;;;24.58;;
57824;SDS011;43912;44.188;21.094;2023-02-15T09:07:43;35.25;;;25.52;;
57824;SDS011;43912;44.188;21.094;2023-02-15T09:10:09;33.30;;;24.08;;
57824;SDS011;43912;44.188;21.094;2023-02-15T09:12:35;28.02;;;22.45;;
57824;SDS011;43912;44.188;21.094;2023-02-15T09:15:01;27.98;;;21.38;;
57824;SDS011;43912;44.188;21.094;2023-02-15T09:17:27;23.95;;;19.63;;
57824;SDS011;43912;44.188;21.094;2023-02-15T09:19:53;32.58;;;24.70;;
57824;SDS011;43912;44.188;21.094;2023-02-15T09:22:19;23.58;;;19.25;;
57824;SDS011;43912;44.188;21.094;2023-02-15T09:24:45;29.27;;;20.35;;
57824;SDS011;43912;44.188;21.094;2023-02-15T09:27:11;26.67;;;21.85;;
57824;SDS011;43912;44.188;21.094;2023-02-15T09:29:37;26.25;;;21.13;;
57824;SDS011;43912;44.188;21.094;2023-02-15T09:32:04;27.75;;;21.83;;
57824;SDS011;43912;44.188;21.094;2023-02-15T09:34:30;166.60;;;97.03;;
57824;SDS011;43912;44.188;21.094;2023-02-15T09:36:56;50.90;;;38.65;;
57824;SDS011;43912;44.188;21.094;2023-02-15T09:39:23;55.33;;;44.38;;
57824;SDS011;43912;44.188;21.094;2023-02-15T09:55:10;26.92;;;22.30;;
57824;SDS011;43912;44.188;21.094;2023-02-15T10:31:27;26.08;;;20.88;;
57824;SDS011;43912;44.188;21.094;2023-02-15T10:34:01;24.27;;;20.23;;
57824;SDS011;43912;44.188;21.094;2023-02-15T10:39:26;28.67;;;24.85;;
57824;SDS011;43912;44.188;21.094;2023-02-15T10:42:10;27.10;;;20.77;;
57824;SDS011;43912;44.188;21.094;2023-02-15T10:44:51;26.05;;;19.55;;
57824;SDS011;43912;44.188;21.094;2023-02-15T10:55:21;25.75;;;21.77;;
57824;SDS011;43912;44.188;21.094;2023-02-15T11:00:23;27.73;;;23.67;;
57824;SDS011;43912;44.188;21.094;2023-02-15T11:03:12;34.67;;;26.50;;
57824;SDS011;43912;44.188;21.094;2023-02-15T11:05:45;30.83;;;24.48;;
57824;SDS011;43912;44.188;21.094;2023-02-15T11:08:15;29.00;;;22.73;;
57824;SDS011;43912;44.188;21.094;2023-02-15T11:10:43;27.10;;;22.55;;
57824;SDS011;43912;44.188;21.094;2023-02-15T11:13:13;27.23;;;22.58;;
57824;SDS011;43912;44.188;21.094;2023-02-15T11:15:41;37.35;;;32.47;;
57824;SDS011;43912;44.188;21.094;2023-02-15T11:18:18;28.38;;;24.25;;
57824;SDS011;43912;44.188;21.094;2023-02-15T11:23:14;37.92;;;33.85;;
57824;SDS011;43912;44.188;21.094;2023-02-15T11:25:41;22.05;;;19.20;;
57824;SDS011;43912;44.188;21.094;2023-02-15T11:28:16;24.25;;;19.13;;
57824;SDS011;43912;44.188;21.094;2023-02-15T11:30:44;25.98;;;20.42;;
57824;SDS011;43912;44.188;21.094;2023-02-15T11:36:08;24.40;;;19.48;;
57824;SDS011;43912;44.188;21.094;2023-02-15T11:38:37;20.80;;;17.67;;
57824;SDS011;43912;44.188;21.094;2023-02-15T11:41:11;24.90;;;19.75;;
57824;SDS011;43912;44.188;21.094;2023-02-15T11:43:50;40.38;;;20.38;;
57824;SDS011;43912;44.188;21.094;2023-02-15T11:46:19;33.88;;;25.00;;
57824;SDS011;43912;44.188;21.094;2023-02-15T11:48:46;23.85;;;21.15;;
57824;SDS011;43912;44.188;21.094;2023-02-15T11:51:13;26.67;;;17.58;;
57824;SDS011;43912;44.188;21.094;2023-02-15T11:53:41;22.20;;;19.50;;
57824;SDS011;43912;44.188;21.094;2023-02-15T11:56:15;19.05;;;15.32;;
57824;SDS011;43912;44.188;21.094;2023-02-15T12:01:19;19.83;;;16.48;;
57824;SDS011;43912;44.188;21.094;2023-02-15T12:06:32;47.55;;;42.00;;
57824;SDS011;43912;44.188;21.094;2023-02-15T12:11:29;18.83;;;15.77;;
57824;SDS011;43912;44.188;21.094;2023-02-15T12:14:00;18.13;;;16.30;;
57824;SDS011;43912;44.188;21.094;2023-02-15T12:16:27;19.88;;;17.35;;
57824;SDS011;43912;44.188;21.094;2023-02-15T12:18:57;18.10;;;15.98;;
57824;SDS011;43912;44.188;21.094;2023-02-15T12:21:31;19.02;;;15.95;;
57824;SDS011;43912;44.188;21.094;2023-02-15T12:27:14;20.52;;;18.42;;
57824;SDS011;43912;44.188;21.094;2023-02-15T12:29:41;47.25;;;20.02;;
57824;SDS011;43912;44.188;21.094;2023-02-15T12:32:16;16.73;;;14.50;;
57824;SDS011;43912;44.188;21.094;2023-02-15T12:34:43;17.65;;;15.27;;
57824;SDS011;43912;44.188;21.094;2023-02-15T12:37:19;18.08;;;15.85;;
57824;SDS011;43912;44.188;21.094;2023-02-15T12:40:28;27.77;;;17.25;;
57824;SDS011;43912;44.188;21.094;2023-02-15T12:42:44;18.13;;;15.85;;
57824;SDS011;43912;44.188;21.094;2023-02-15T12:45:30;18.08;;;14.88;;
57824;SDS011;43912;44.188;21.094;2023-02-15T12:48:18;20.25;;;18.15;;
57824;SDS011;43912;44.188;21.094;2023-02-15T12:50:43;19.08;;;16.67;;
57824;SDS011;43912;44.188;21.094;2023-02-15T12:53:20;21.10;;;18.80;;
57824;SDS011;43912;44.188;21.094;2023-02-15T12:55:52;20.33;;;18.15;;
57824;SDS011;43912;44.188;21.094;2023-02-15T12:58:20;19.45;;;17.38;;
57824;SDS011;43912;44.188;21.094;2023-02-15T13:00:48;17.10;;;15.32;;
57824;SDS011;43912;44.188;21.094;2023-02-15T13:03:18;19.98;;;17.05;;
57824;SDS011;43912;44.188;21.094;2023-02-15T13:05:46;19.35;;;17.35;;
57824;SDS011;43912;44.188;21.094;2023-02-15T13:08:17;20.45;;;18.20;;
57824;SDS011;43912;44.188;21.094;2023-02-15T13:10:52;18.90;;;16.90;;
57824;SDS011;43912;44.188;21.094;2023-02-15T13:13:20;20.15;;;18.05;;
57824;SDS011;43912;44.188;21.094;2023-02-15T13:15:48;21.40;;;19.13;;
57824;SDS011;43912;44.188;21.094;2023-02-15T13:18:16;18.77;;;16.63;;
57824;SDS011;43912;44.188;21.094;2023-02-15T13:20:43;21.50;;;18.15;;
57824;SDS011;43912;44.188;21.094;2023-02-15T13:26:08;21.85;;;19.30;;
57824;SDS011;43912;44.188;21.094;2023-02-15T13:28:38;29.98;;;25.13;;
57824;SDS011;43912;44.188;21.094;2023-02-15T13:31:08;19.83;;;17.77;;
57824;SDS011;43912;44.188;21.094;2023-02-15T13:33:37;20.42;;;18.27;;
57824;SDS011;43912;44.188;21.094;2023-02-15T13:41:08;21.40;;;18.48;;
57824;SDS011;43912;44.188;21.094;2023-02-15T13:43:45;17.70;;;14.75;;
57824;SDS011;43912;44.188;21.094;2023-02-15T13:46:14;21.25;;;17.05;;
57824;SDS011;43912;44.188;21.094;2023-02-15T13:51:20;21.30;;;18.50;;
57824;SDS011;43912;44.188;21.094;2023-02-15T14:01:22;21.80;;;16.88;;
57824;SDS011;43912;44.188;21.094;2023-02-15T14:17:26;34.13;;;29.77;;
57824;SDS011;43912;44.188;21.094;2023-02-15T14:19:57;29.45;;;20.42;;
57824;SDS011;43912;44.188;21.094;2023-02-15T14:33:01;21.88;;;17.63;;
57824;SDS011;43912;44.188;21.094;2023-02-15T14:35:29;30.23;;;26.92;;
57824;SDS011;43912;44.188;21.094;2023-02-15T14:48:45;28.25;;;22.15;;
57824;SDS011;43912;44.188;21.094;2023-02-15T14:53:56;22.10;;;18.15;;
57824;SDS011;43912;44.188;21.094;2023-02-15T14:56:23;27.42;;;19.13;;
57824;SDS011;43912;44.188;21.094;2023-02-15T15:01:32;29.48;;;23.02;;
57824;SDS011;43912;44.188;21.094;2023-02-15T15:04:08;27.63;;;20.45;;
57824;SDS011;43912;44.188;21.094;2023-02-15T15:06:36;26.00;;;19.38;;
57824;SDS011;43912;44.188;21.094;2023-02-15T15:09:10;40.67;;;27.90;;
57824;SDS011;43912;44.188;21.094;2023-02-15T15:11:41;55.80;;;48.17;;
57824;SDS011;43912;44.188;21.094;2023-02-15T15:14:08;62.03;;;53.03;;
57824;SDS011;43912;44.188;21.094;2023-02-15T15:19:01;50.85;;;39.40;;
57824;SDS011;43912;44.188;21.094;2023-02-15T15:27:57;43.22;;;31.00;;
57824;SDS011;43912;44.188;21.094;2023-02-15T15:29:51;36.22;;;31.52;;
57824;SDS011;43912;44.188;21.094;2023-02-15T15:32:19;40.60;;;32.05;;
57824;SDS011;43912;44.188;21.094;2023-02-15T15:45:08;47.33;;;38.78;;
57824;SDS011;43912;44.188;21.094;2023-02-15T15:50:15;66.38;;;48.22;;
57824;SDS011;43912;44.188;21.094;2023-02-15T15:52:44;79.13;;;53.58;;
57824;SDS011;43912;44.188;21.094;2023-02-15T15:55:15;181.60;;;134.02;;
57824;SDS011;43912;44.188;21.094;2023-02-15T15:57:43;113.65;;;80.22;;
57824;SDS011;43912;44.188;21.094;2023-02-15T16:00:43;104.22;;;74.97;;
57824;SDS011;43912;44.188;21.094;2023-02-15T16:03:12;99.82;;;66.57;;
57824;SDS011;43912;44.188;21.094;2023-02-15T16:05:39;88.18;;;61.70;;
57824;SDS011;43912;44.188;21.094;2023-02-15T16:08:05;86.03;;;65.13;;
57824;SDS011;43912;44.188;21.094;2023-02-15T16:10:32;99.32;;;69.88;;
57824;SDS011;43912;44.188;21.094;2023-02-15T16:12:59;105.80;;;77.40;;
57824;SDS011;43912;44.188;21.094;2023-02-15T16:15:28;94.68;;;72.20;;
57824;SDS011;43912;44.188;21.094;2023-02-15T16:17:56;79.28;;;60.92;;
57824;SDS011;43912;44.188;21.094;2023-02-15T16:20:27;78.30;;;59.08;;
57824;SDS011;43912;44.188;21.094;2023-02-15T16:28:11;118.55;;;87.60;;
57824;SDS011;43912;44.188;21.094;2023-02-15T16:30:38;134.48;;;96.95;;
57824;SDS011;43912;44.188;21.094;2023-02-15T16:35:34;135.25;;;90.38;;
57824;SDS011;43912;44.188;21.094;2023-02-15T16:38:01;108.53;;;86.18;;
57824;SDS011;43912;44.188;21.094;2023-02-15T16:40:46;82.20;;;56.33;;
57824;SDS011;43912;44.188;21.094;2023-02-15T16:43:20;64.18;;;47.72;;
57824;SDS011;43912;44.188;21.094;2023-02-15T16:45:49;56.67;;;43.53;;
57824;SDS011;43912;44.188;21.094;2023-02-15T16:48:17;59.55;;;46.67;;
57824;SDS011;43912;44.188;21.094;2023-02-15T16:50:49;58.75;;;46.88;;
57824;SDS011;43912;44.188;21.094;2023-02-15T16:53:18;48.13;;;39.30;;
57824;SDS011;43912;44.188;21.094;2023-02-15T16:55:44;46.47;;;35.40;;
57824;SDS011;43912;44.188;21.094;2023-02-15T16:58:15;43.22;;;34.17;;
57824;SDS011;43912;44.188;21.094;2023-02-15T17:00:41;39.92;;;32.45;;
57824;SDS011;43912;44.188;21.094;2023-02-15T17:05:47;42.35;;;32.03;;
57824;SDS011;43912;44.188;21.094;2023-02-15T17:13:27;39.75;;;31.25;;
57824;SDS011;43912;44.188;21.094;2023-02-15T17:18:26;59.15;;;45.20;;
57824;SDS011;43912;44.188;21.094;2023-02-15T17:21:08;57.92;;;46.35;;
57824;SDS011;43912;44.188;21.094;2023-02-15T17:23:40;58.78;;;45.85;;
57824;SDS011;43912;44.188;21.094;2023-02-15T17:26:14;58.97;;;48.38;;
57824;SDS011;43912;44.188;21.094;2023-02-15T17:29:20;58.53;;;49.38;;
57824;SDS011;43912;44.188;21.094;2023-02-15T17:31:33;56.25;;;46.40;;
57824;SDS011;43912;44.188;21.094;2023-02-15T17:34:00;50.10;;;42.22;;
57824;SDS011;43912;44.188;21.094;2023-02-15T17:36:27;51.50;;;38.38;;
57824;SDS011;43912;44.188;21.094;2023-02-15T17:41:28;79.07;;;56.22;;
57824;SDS011;43912;44.188;21.094;2023-02-15T17:43:54;69.68;;;52.42;;
57824;SDS011;43912;44.188;21.094;2023-02-15T17:46:20;62.00;;;47.88;;
57824;SDS011;43912;44.188;21.094;2023-02-15T17:48:47;56.55;;;45.42;;
57824;SDS011;43912;44.188;21.094;2023-02-15T17:51:14;81.90;;;56.85;;